createdAt,value
2018-02-14T00:00:46.376Z,57.90
2018-02-14T00:03:14.092Z,57.90
2018-02-14T00:05:41.655Z,57.90
2018-02-14T00:08:09.321Z,57.90
2018-02-14T00:10:37.008Z,58.00
2018-02-14T00:13:04.729Z,58.00
2018-02-14T00:15:33.172Z,58.20
2018-02-14T00:18:00.940Z,58.10
2018-02-14T00:20:28.586Z,58.20
2018-02-14T00:22:56.257Z,58.20
2018-02-14T00:25:23.831Z,58.10
2018-02-14T00:27:51.624Z,58.20
2018-02-14T00:30:20.057Z,58.30
2018-02-14T00:32:47.751Z,58.20
2018-02-14T00:35:15.420Z,58.30
2018-02-14T00:37:43.110Z,58.20
2018-02-14T00:40:10.749Z,58.30
2018-02-14T00:42:39.312Z,58.30
2018-02-14T00:45:07.009Z,58.30
2018-02-14T00:47:34.607Z,58.30
2018-02-14T00:50:02.261Z,58.40
2018-02-14T00:52:29.902Z,58.40
2018-02-14T00:54:58.337Z,58.40
2018-02-14T00:57:25.946Z,58.40
2018-02-14T00:59:53.643Z,58.40
2018-02-14T01:02:21.388Z,58.40
2018-02-14T01:04:49.102Z,58.40
2018-02-14T01:07:16.798Z,58.40
2018-02-14T01:09:44.672Z,58.40
2018-02-14T01:12:12.407Z,58.40
2018-02-14T01:14:40.089Z,58.40
2018-02-14T01:17:08.642Z,58.90
2018-02-14T01:19:37.289Z,58.40
2018-02-14T01:22:04.983Z,58.50
2018-02-14T01:24:32.619Z,58.50
2018-02-14T01:27:00.310Z,58.50
2018-02-14T01:29:28.087Z,58.50
2018-02-14T01:31:56.187Z,58.60
2018-02-14T01:34:24.633Z,58.60
2018-02-14T01:36:52.359Z,58.60
2018-02-14T01:39:19.829Z,58.70
2018-02-14T01:41:47.513Z,58.70
2018-02-14T01:44:15.209Z,58.70
2018-02-14T01:46:43.662Z,58.70
2018-02-14T01:49:11.430Z,58.70
2018-02-14T01:51:39.184Z,58.70
2018-02-14T01:54:06.910Z,58.70
2018-02-14T01:56:34.624Z,58.90
2018-02-14T01:59:02.337Z,58.80
2018-02-14T02:01:29.944Z,58.80
2018-02-14T02:03:57.654Z,58.90
2018-02-14T02:06:25.252Z,58.90
2018-02-14T02:08:52.916Z,58.90
2018-02-14T02:11:20.561Z,58.80
2018-02-14T02:13:48.273Z,58.90
2018-02-14T02:16:16.764Z,58.90
2018-02-14T02:18:45.257Z,58.90
2018-02-14T02:21:13.002Z,58.90
2018-02-14T02:23:40.747Z,59.00
2018-02-14T02:26:08.463Z,59.00
2018-02-14T02:28:36.167Z,59.00
2018-02-14T02:31:03.822Z,59.00
2018-02-14T02:33:31.482Z,59.10
2018-02-14T02:35:59.167Z,59.10
2018-02-14T02:38:26.921Z,59.10
2018-02-14T02:40:54.598Z,59.10
2018-02-14T02:43:22.254Z,59.10
2018-02-14T02:45:50.031Z,59.10
2018-02-14T02:48:17.777Z,59.10
2018-02-14T02:50:45.500Z,59.10
2018-02-14T02:53:13.263Z,59.20
2018-02-14T02:55:40.957Z,59.20
2018-02-14T02:58:08.668Z,59.20
2018-02-14T03:00:36.371Z,59.20
2018-02-14T03:03:04.034Z,59.30
2018-02-14T03:05:31.687Z,59.40
2018-02-14T03:07:59.357Z,59.30
2018-02-14T03:10:26.968Z,59.40
2018-02-14T03:12:54.743Z,59.40
2018-02-14T03:15:22.395Z,59.40
2018-02-14T03:17:50.258Z,59.30
2018-02-14T03:20:17.900Z,59.40
2018-02-14T03:22:45.638Z,59.40
2018-02-14T03:25:13.497Z,59.40
2018-02-14T03:27:41.151Z,59.40
2018-02-14T03:30:08.855Z,59.40
2018-02-14T03:32:36.498Z,59.50
2018-02-14T03:35:04.333Z,59.50
2018-02-14T03:37:32.873Z,59.50
2018-02-14T03:40:00.638Z,59.50
2018-02-14T03:42:28.381Z,59.50
2018-02-14T03:44:56.060Z,59.50
2018-02-14T03:47:23.703Z,59.50
2018-02-14T03:49:51.332Z,59.50
2018-02-14T03:52:19.903Z,59.50
2018-02-14T03:54:47.623Z,59.50
2018-02-14T03:57:15.564Z,59.50
2018-02-14T03:59:43.240Z,59.60
2018-02-14T04:02:10.842Z,59.50
2018-02-14T04:04:38.553Z,59.60
2018-02-14T04:07:06.263Z,59.60
2018-02-14T04:09:33.942Z,59.60
2018-02-14T04:12:01.614Z,59.70
2018-02-14T04:14:29.333Z,59.70
2018-02-14T04:16:57.116Z,59.70
2018-02-14T04:19:26.904Z,59.70
2018-02-14T04:21:54.642Z,59.70
2018-02-14T04:24:23.108Z,59.80
2018-02-14T04:26:51.525Z,59.80
2018-02-14T04:29:19.196Z,59.70
2018-02-14T04:31:46.910Z,59.80
2018-02-14T04:34:14.540Z,59.80
2018-02-14T04:36:42.319Z,59.80
2018-02-14T04:39:09.971Z,59.80
2018-02-14T04:41:37.742Z,59.80
2018-02-14T04:44:06.281Z,59.80
2018-02-14T04:46:33.766Z,59.80
2018-02-14T04:49:01.246Z,59.90
2018-02-14T04:51:28.861Z,59.90
2018-02-14T04:53:56.555Z,60.00
2018-02-14T04:56:24.218Z,60.00
2018-02-14T04:58:51.917Z,60.00
2018-02-14T05:01:19.563Z,60.00
2018-02-14T05:03:47.255Z,60.00
2018-02-14T05:06:15.014Z,60.00
2018-02-14T05:08:43.594Z,60.10
2018-02-14T05:11:11.312Z,60.80
2018-02-14T05:13:39.077Z,60.10
2018-02-14T05:16:06.846Z,60.10
2018-02-14T05:18:34.518Z,60.10
2018-02-14T05:21:02.347Z,60.20
2018-02-14T05:23:30.121Z,60.30
2018-02-14T05:25:57.737Z,60.20
2018-02-14T05:28:25.317Z,60.20
2018-02-14T05:30:53.810Z,60.30
2018-02-14T05:33:21.468Z,60.10
2018-02-14T05:35:49.939Z,60.20
2018-02-14T05:38:18.470Z,60.30
2018-02-14T05:40:46.084Z,60.30
2018-02-14T05:43:14.714Z,60.50
2018-02-14T05:45:42.398Z,60.50
2018-02-14T05:48:10.122Z,60.40
2018-02-14T05:50:37.730Z,60.50
2018-02-14T05:53:05.487Z,60.50
2018-02-14T05:55:33.252Z,60.50
2018-02-14T05:58:00.944Z,60.50
2018-02-14T06:00:28.626Z,60.50
2018-02-14T06:02:57.074Z,60.60
2018-02-14T06:05:24.717Z,60.50
2018-02-14T06:07:52.364Z,60.60
2018-02-14T06:10:20.048Z,60.60
2018-02-14T06:12:47.785Z,60.50
2018-02-14T06:15:15.454Z,60.60
2018-02-14T06:17:43.310Z,60.60
2018-02-14T06:20:11.003Z,60.60
2018-02-14T06:22:38.648Z,60.70
2018-02-14T06:25:06.399Z,60.70
2018-02-14T06:27:33.913Z,60.80
2018-02-14T06:30:02.389Z,61.00
2018-02-14T06:32:30.127Z,61.00
2018-02-14T06:34:57.808Z,60.90
2018-02-14T06:37:25.443Z,60.90
2018-02-14T06:39:53.278Z,61.00
2018-02-14T06:42:20.953Z,61.00
2018-02-14T06:44:48.719Z,60.90
2018-02-14T06:47:16.487Z,61.00
2018-02-14T06:49:44.199Z,61.10
2018-02-14T06:52:11.994Z,61.00
2018-02-14T06:54:40.623Z,61.00
2018-02-14T06:57:08.326Z,61.00
2018-02-14T06:59:36.789Z,61.40
2018-02-14T07:02:04.487Z,60.80
2018-02-14T07:04:33.183Z,60.70
2018-02-14T07:07:01.012Z,60.70
2018-02-14T07:09:29.552Z,60.80
2018-02-14T07:11:57.327Z,60.70
2018-02-14T07:14:25.032Z,60.80
2018-02-14T07:16:52.663Z,60.90
2018-02-14T07:19:20.364Z,60.70
2018-02-14T07:21:48.962Z,60.80
2018-02-14T07:24:16.654Z,60.70
2018-02-14T07:26:44.447Z,60.70
2018-02-14T07:29:12.264Z,60.80
2018-02-14T07:31:39.981Z,60.70
2018-02-14T07:34:07.706Z,60.70
2018-02-14T07:36:35.272Z,60.70
2018-02-14T07:39:03.229Z,60.70
2018-02-14T07:41:30.908Z,60.60
2018-02-14T07:43:58.600Z,60.60
2018-02-14T07:46:26.393Z,60.70
2018-02-14T07:48:53.955Z,60.70
2018-02-14T07:51:22.458Z,60.60
2018-02-14T07:53:50.223Z,60.50
2018-02-14T07:56:17.893Z,60.50
2018-02-14T07:58:45.641Z,60.40
2018-02-14T08:01:13.882Z,60.50
2018-02-14T08:03:41.696Z,61.20
2018-02-14T08:06:09.413Z,60.30
2018-02-14T08:08:37.077Z,60.30
2018-02-14T08:11:04.820Z,60.20
2018-02-14T08:13:32.502Z,60.20
2018-02-14T08:16:00.203Z,60.30
2018-02-14T08:18:28.638Z,60.10
2018-02-14T08:20:56.461Z,60.20
2018-02-14T08:23:25.483Z,60.10
2018-02-14T08:25:54.167Z,60.10
2018-02-14T08:28:21.989Z,60.10
2018-02-14T08:30:49.765Z,60.00
2018-02-14T08:33:17.456Z,60.00
2018-02-14T08:35:45.128Z,60.00
2018-02-14T08:38:13.472Z,60.00
2018-02-14T08:40:41.116Z,60.00
2018-02-14T08:43:08.856Z,59.90
2018-02-14T08:45:36.559Z,60.00
2018-02-14T08:48:05.072Z,59.80
2018-02-14T08:50:32.756Z,59.80
2018-02-14T08:53:00.431Z,59.80
2018-02-14T08:55:28.068Z,59.80
2018-02-14T08:57:55.856Z,59.80
2018-02-14T09:00:23.592Z,59.80
2018-02-14T09:02:51.248Z,59.60
2018-02-14T09:05:18.869Z,59.60
2018-02-14T09:07:47.322Z,59.50
2018-02-14T09:10:14.973Z,59.50
2018-02-14T09:12:42.871Z,59.40
2018-02-14T09:15:10.694Z,59.40
2018-02-14T09:17:38.459Z,59.30
2018-02-14T09:20:06.129Z,59.30
2018-02-14T09:22:33.695Z,59.20
2018-02-14T09:25:01.391Z,59.20
2018-02-14T09:27:28.973Z,59.10
2018-02-14T09:29:56.656Z,59.20
2018-02-14T09:32:24.178Z,59.10
2018-02-14T09:34:51.862Z,59.10
2018-02-14T09:37:20.295Z,59.00
2018-02-14T09:39:48.062Z,59.00
2018-02-14T09:42:15.879Z,59.00
2018-02-14T09:44:44.324Z,58.80
2018-02-14T09:47:12.049Z,58.70
2018-02-14T09:49:39.870Z,58.70
2018-02-14T09:52:07.467Z,58.60
2018-02-14T09:54:35.143Z,58.40
2018-02-14T09:57:02.827Z,58.20
2018-02-14T09:59:30.469Z,58.10
2018-02-14T10:01:58.215Z,57.90
2018-02-14T10:04:25.823Z,57.60
2018-02-14T10:06:53.547Z,57.40
2018-02-14T10:09:24.284Z,57.40
2018-02-14T10:11:52.048Z,57.30
2018-02-14T10:14:19.719Z,57.20
2018-02-14T10:16:47.358Z,57.00
2018-02-14T10:19:15.179Z,56.90
2018-02-14T10:21:42.790Z,56.90
2018-02-14T10:24:10.563Z,56.80
2018-02-14T10:26:38.367Z,56.60
2018-02-14T10:29:06.142Z,56.60
2018-02-14T10:31:33.875Z,56.40
2018-02-14T10:34:01.658Z,56.40
2018-02-14T10:36:29.412Z,56.40
2018-02-14T10:38:57.164Z,56.40
2018-02-14T10:41:24.944Z,56.20
2018-02-14T10:43:52.646Z,56.00
2018-02-14T10:46:20.388Z,55.70
2018-02-14T10:48:48.077Z,55.70
2018-02-14T10:51:15.789Z,55.60
2018-02-14T10:53:43.274Z,55.80
2018-02-14T10:56:10.948Z,55.20
2018-02-14T10:58:38.642Z,55.20
2018-02-14T11:01:06.357Z,55.20
2018-02-14T11:03:39.830Z,54.50
2018-02-14T11:06:13.635Z,54.50
2018-02-14T11:08:41.259Z,54.60
2018-02-14T11:11:09.678Z,54.60
2018-02-14T11:13:37.429Z,54.60
2018-02-14T11:16:05.181Z,54.40
2018-02-14T11:18:32.997Z,54.10
2018-02-14T11:21:00.802Z,54.10
2018-02-14T11:23:29.278Z,53.90
2018-02-14T11:25:57.014Z,53.90
2018-02-14T11:28:24.669Z,53.80
2018-02-14T11:30:52.347Z,53.50
2018-02-14T11:33:19.981Z,53.50
2018-02-14T11:35:47.782Z,53.30
2018-02-14T11:38:15.516Z,53.00
2018-02-14T11:40:43.214Z,52.80
2018-02-14T11:43:10.857Z,53.00
2018-02-14T11:45:38.641Z,53.00
2018-02-14T11:48:06.283Z,52.80
2018-02-14T11:50:33.962Z,52.60
2018-02-14T11:53:01.670Z,52.60
2018-02-14T11:55:29.389Z,52.50
2018-02-14T11:57:57.077Z,52.50
2018-02-14T12:00:24.717Z,52.50
2018-02-14T12:02:52.419Z,52.50
2018-02-14T12:05:20.171Z,52.00
2018-02-14T12:07:48.640Z,52.10
2018-02-14T12:10:16.318Z,52.10
2018-02-14T12:12:44.774Z,52.20
2018-02-14T12:15:12.531Z,52.20
2018-02-14T12:17:40.260Z,51.90
2018-02-14T12:20:07.961Z,51.50
2018-02-14T12:22:35.729Z,51.50
2018-02-14T12:25:03.521Z,51.50
2018-02-14T12:27:31.908Z,51.20
2018-02-14T12:29:59.766Z,51.20
2018-02-14T12:32:27.375Z,50.80
2018-02-14T12:34:55.049Z,50.70
2018-02-14T12:37:23.576Z,50.90
2018-02-14T12:39:51.290Z,50.50
2018-02-14T12:42:18.881Z,50.50
2018-02-14T12:44:46.693Z,50.60
2018-02-14T12:47:15.193Z,49.90
2018-02-14T12:49:42.847Z,49.90
2018-02-14T12:52:10.520Z,50.00
2018-02-14T12:54:38.374Z,49.70
2018-02-14T12:57:06.066Z,49.30
2018-02-14T12:59:33.770Z,49.10
2018-02-14T13:02:02.187Z,48.90
2018-02-14T13:04:29.858Z,48.90
2018-02-14T13:06:57.459Z,48.70
2018-02-14T13:09:25.153Z,48.80
2018-02-14T13:11:52.804Z,48.90
2018-02-14T13:14:21.328Z,48.90
2018-02-14T13:16:49.077Z,48.90
2018-02-14T13:19:16.740Z,48.80
2018-02-14T13:21:44.517Z,48.90
2018-02-14T13:24:12.089Z,48.80
2018-02-14T13:26:39.849Z,47.90
2018-02-14T13:29:07.558Z,47.40
2018-02-14T13:31:35.996Z,47.40
2018-02-14T13:34:03.750Z,47.40
2018-02-14T13:36:31.365Z,47.20
2018-02-14T13:38:59.019Z,46.90
2018-02-14T13:41:26.937Z,46.50
2018-02-14T13:43:54.615Z,46.30
2018-02-14T13:46:22.285Z,46.40
2018-02-14T13:48:50.673Z,45.80
2018-02-14T13:51:18.392Z,45.80
2018-02-14T13:53:46.064Z,45.70
2018-02-14T13:56:13.805Z,45.70
2018-02-14T13:58:42.312Z,45.00
2018-02-14T14:01:10.009Z,44.80
2018-02-14T14:03:38.480Z,42.00
2018-02-14T14:06:06.237Z,41.90
2018-02-14T14:08:33.979Z,41.60
2018-02-14T14:11:01.519Z,39.90
2018-02-14T14:13:29.161Z,38.70
2018-02-14T14:15:56.820Z,36.80
2018-02-14T14:18:24.621Z,36.70
2018-02-14T14:20:52.316Z,37.00
2018-02-14T14:23:19.913Z,34.60
2018-02-14T14:25:47.560Z,32.80
2018-02-14T14:28:15.219Z,32.20
2018-02-14T14:30:42.888Z,30.70
2018-02-14T14:33:10.620Z,29.90
2018-02-14T14:35:38.301Z,29.10
2018-02-14T14:38:05.976Z,28.70
2018-02-14T14:40:33.881Z,28.90
2018-02-14T14:43:01.587Z,27.50
2018-02-14T14:45:29.249Z,27.60
2018-02-14T14:47:57.042Z,27.30
2018-02-14T14:50:24.669Z,26.60
2018-02-14T14:52:52.239Z,27.00
2018-02-14T14:55:19.933Z,26.80
2018-02-14T14:57:47.732Z,26.70
2018-02-14T15:00:15.368Z,26.80
2018-02-14T15:02:43.058Z,27.00
2018-02-14T15:05:10.726Z,27.70
2018-02-14T15:07:38.425Z,27.90
2018-02-14T15:10:06.135Z,28.60
2018-02-14T15:12:33.689Z,28.30
2018-02-14T15:15:01.312Z,28.20
2018-02-14T15:17:28.990Z,27.90
2018-02-14T15:19:56.640Z,27.50
2018-02-14T15:22:24.309Z,27.50
2018-02-14T15:24:52.099Z,27.40
2018-02-14T15:27:19.911Z,27.40
2018-02-14T15:29:47.741Z,27.90
2018-02-14T15:32:15.415Z,28.20
2018-02-14T15:34:43.848Z,28.80
2018-02-14T15:37:11.506Z,28.70
2018-02-14T15:39:39.180Z,28.80
2018-02-14T15:42:06.873Z,29.20
2018-02-14T15:44:35.368Z,30.50
2018-02-14T15:47:03.134Z,30.40
2018-02-14T15:49:31.617Z,31.90
2018-02-14T15:52:00.078Z,32.60
2018-02-14T15:54:27.785Z,32.60
2018-02-14T15:56:55.637Z,33.40
2018-02-14T15:59:23.412Z,32.70
2018-02-14T16:01:51.164Z,32.90
2018-02-14T16:04:18.825Z,33.30
2018-02-14T16:06:46.564Z,33.60
2018-02-14T16:09:15.080Z,35.30
2018-02-14T16:11:42.857Z,35.20
2018-02-14T16:14:10.449Z,35.60
2018-02-14T16:16:38.341Z,36.00
2018-02-14T16:19:06.113Z,36.40
2018-02-14T16:21:33.798Z,36.70
2018-02-14T16:24:02.337Z,37.60
2018-02-14T16:26:30.218Z,37.60
2018-02-14T16:28:58.745Z,38.10
2018-02-14T16:31:26.422Z,38.10
2018-02-14T16:33:54.216Z,38.50
2018-02-14T16:36:22.087Z,38.80
2018-02-14T16:38:49.823Z,39.70
2018-02-14T16:41:17.559Z,39.40
2018-02-14T16:43:45.172Z,39.60
2018-02-14T16:46:12.891Z,39.80
2018-02-14T16:48:40.485Z,40.00
2018-02-14T16:51:08.172Z,40.40
2018-02-14T16:53:35.862Z,40.60
2018-02-14T16:56:03.707Z,40.90
2018-02-14T16:58:31.390Z,41.10
2018-02-14T17:00:59.063Z,41.40
2018-02-14T17:03:26.830Z,41.60
2018-02-14T17:05:54.503Z,41.70
2018-02-14T17:08:22.140Z,41.90
2018-02-14T17:10:50.578Z,42.10
2018-02-14T17:13:18.259Z,42.10
2018-02-14T17:15:45.958Z,42.30
2018-02-14T17:18:14.596Z,42.60
2018-02-14T17:20:42.305Z,42.60
2018-02-14T17:23:10.724Z,42.90
2018-02-14T17:25:38.458Z,42.90
2018-02-14T17:28:06.221Z,43.10
2018-02-14T17:30:34.122Z,43.00
2018-02-14T17:33:01.859Z,42.90
2018-02-14T17:35:29.520Z,42.90
2018-02-14T17:37:57.360Z,42.80
2018-02-14T17:40:25.181Z,42.70
2018-02-14T17:42:52.991Z,42.90
2018-02-14T17:45:20.697Z,42.70
2018-02-14T17:47:48.463Z,42.60
2018-02-14T17:50:16.182Z,42.60
2018-02-14T17:52:44.018Z,42.50
2018-02-14T17:55:11.661Z,42.90
2018-02-14T17:57:39.431Z,42.70
2018-02-14T18:00:07.124Z,42.80
2018-02-14T18:02:34.832Z,42.70
2018-02-14T18:05:02.654Z,42.80
2018-02-14T18:07:30.395Z,43.00
2018-02-14T18:09:58.303Z,43.10
2018-02-14T18:12:26.202Z,43.10
2018-02-14T18:14:54.000Z,43.00
2018-02-14T18:17:21.828Z,43.10
2018-02-14T18:19:49.408Z,43.00
2018-02-14T18:22:17.319Z,42.80
2018-02-14T18:24:45.378Z,42.90
2018-02-14T18:27:13.334Z,43.00
2018-02-14T18:29:42.140Z,43.20
2018-02-14T18:32:10.129Z,43.10
2018-02-14T18:34:38.634Z,43.10
2018-02-14T18:37:07.151Z,43.20
2018-02-14T18:39:34.939Z,43.10
2018-02-14T18:42:02.735Z,43.20
2018-02-14T18:44:30.507Z,43.20
2018-02-14T18:46:59.038Z,43.30
2018-02-14T18:49:26.995Z,43.20
2018-02-14T18:51:54.891Z,43.20
2018-02-14T18:54:22.560Z,43.30
2018-02-14T18:56:50.157Z,43.40
2018-02-14T18:59:18.567Z,43.30
2018-02-14T19:01:46.275Z,43.30
2018-02-14T19:04:14.031Z,43.40
2018-02-14T19:06:43.254Z,43.40
2018-02-14T19:09:11.891Z,43.60
2018-02-14T19:11:39.545Z,43.50
2018-02-14T19:14:07.202Z,43.70
2018-02-14T19:16:34.938Z,43.70
2018-02-14T19:19:03.461Z,44.00
2018-02-14T19:21:31.098Z,44.00
2018-02-14T19:23:58.855Z,44.00
2018-02-14T19:26:26.535Z,44.00
2018-02-14T19:28:54.075Z,44.00
2018-02-14T19:31:22.559Z,44.10
2018-02-14T19:33:50.953Z,44.20
2018-02-14T19:36:18.596Z,44.10
2018-02-14T19:38:46.416Z,44.30
2018-02-14T19:41:14.129Z,44.30
2018-02-14T19:43:42.584Z,44.50
2018-02-14T19:46:10.925Z,44.40
2018-02-14T19:48:38.743Z,44.50
2018-02-14T19:51:06.520Z,44.50
2018-02-14T19:53:34.376Z,44.60
2018-02-14T19:56:02.182Z,44.70
2018-02-14T19:58:30.042Z,44.70
2018-02-14T20:00:57.963Z,44.80
2018-02-14T20:03:25.772Z,44.80
2018-02-14T20:05:53.696Z,44.90
2018-02-14T20:08:21.884Z,45.00
2018-02-14T20:10:49.688Z,45.00
2018-02-14T20:13:17.535Z,45.20
2018-02-14T20:15:45.336Z,45.30
2018-02-14T20:18:13.403Z,45.90
2018-02-14T20:20:41.078Z,45.40
2018-02-14T20:23:08.885Z,45.50
2018-02-14T20:25:36.990Z,45.60
2018-02-14T20:28:04.951Z,45.60
2018-02-14T20:30:32.939Z,45.60
2018-02-14T20:33:00.821Z,45.70
2018-02-14T20:35:29.996Z,45.80
2018-02-14T20:37:57.942Z,45.90
2018-02-14T20:40:25.773Z,45.90
2018-02-14T20:42:53.678Z,46.00
2018-02-14T20:45:21.871Z,46.00
2018-02-14T20:47:50.992Z,46.10
2018-02-14T20:50:18.686Z,46.10
2018-02-14T20:52:46.722Z,46.20
2018-02-14T20:55:14.506Z,46.30
2018-02-14T20:57:42.448Z,46.30
2018-02-14T21:00:10.315Z,46.40
2018-02-14T21:02:38.153Z,46.50
2018-02-14T21:05:05.879Z,46.50
2018-02-14T21:07:34.332Z,46.60
2018-02-14T21:10:02.158Z,46.60
2018-02-14T21:12:29.906Z,46.60
2018-02-14T21:14:57.788Z,46.60
2018-02-14T21:17:25.623Z,46.60
2018-02-14T21:19:53.679Z,46.60
2018-02-14T21:22:21.414Z,46.50
2018-02-14T21:24:49.226Z,46.50
2018-02-14T21:27:16.896Z,46.40
2018-02-14T21:29:44.619Z,46.50
2018-02-14T21:32:12.327Z,46.60
2018-02-14T21:34:40.788Z,46.60
2018-02-14T21:37:08.488Z,46.60
2018-02-14T21:39:36.212Z,46.60
2018-02-14T21:42:04.081Z,46.50
2018-02-14T21:44:32.020Z,46.30
2018-02-14T21:46:59.757Z,46.30
2018-02-14T21:49:27.482Z,46.40
2018-02-14T21:51:55.224Z,46.50
2018-02-14T21:54:22.983Z,46.50
2018-02-14T21:56:50.793Z,46.60
2018-02-14T21:59:18.485Z,46.50
2018-02-14T22:01:46.147Z,46.30
2018-02-14T22:04:13.878Z,46.40
2018-02-14T22:06:41.768Z,46.60
2018-02-14T22:09:09.558Z,46.50
2018-02-14T22:11:38.044Z,46.70
2018-02-14T22:14:05.905Z,46.70
2018-02-14T22:16:34.422Z,46.70
2018-02-14T22:19:02.186Z,46.70
2018-02-14T22:21:30.020Z,46.70
2018-02-14T22:23:57.650Z,46.80
2018-02-14T22:26:25.379Z,46.80
2018-02-14T22:28:53.137Z,46.90
2018-02-14T22:31:20.910Z,46.90
2018-02-14T22:33:48.576Z,46.90
2018-02-14T22:36:16.352Z,46.90
2018-02-14T22:38:44.053Z,47.00
2018-02-14T22:41:11.783Z,47.10
2018-02-14T22:43:39.562Z,47.10
2018-02-14T22:46:07.330Z,47.00
2018-02-14T22:48:35.038Z,47.10
2018-02-14T22:51:03.604Z,47.20
2018-02-14T22:53:31.320Z,47.10
2018-02-14T22:55:59.006Z,46.80
2018-02-14T22:58:26.734Z,47.20
2018-02-14T23:00:54.332Z,47.30
2018-02-14T23:03:22.067Z,47.40
2018-02-14T23:05:49.709Z,47.50
2018-02-14T23:08:17.448Z,47.60
2018-02-14T23:10:45.252Z,47.80
2018-02-14T23:13:12.987Z,47.70
2018-02-14T23:15:40.632Z,47.70
2018-02-14T23:18:08.221Z,47.70
2018-02-14T23:20:36.772Z,47.90
2018-02-14T23:23:04.423Z,47.90
2018-02-14T23:25:32.094Z,48.10
2018-02-14T23:27:59.736Z,48.10
2018-02-14T23:30:27.542Z,48.10
2018-02-14T23:32:56.019Z,48.30
2018-02-14T23:35:23.654Z,48.20
2018-02-14T23:37:51.287Z,48.20
2018-02-14T23:40:18.920Z,48.10
2018-02-14T23:42:46.635Z,48.20
2018-02-14T23:45:14.190Z,48.20
2018-02-14T23:47:41.957Z,48.40
2018-02-14T23:50:09.710Z,48.30
2018-02-14T23:52:37.448Z,48.30
2018-02-14T23:55:05.093Z,48.30
2018-02-14T23:57:32.762Z,48.50
